Panda — PBCS — position and weather

sailwx.info

Track history (hours):
 
Tides and Currents Weather Stations Pressure Air Temp Water Temp Dewpoint Dewpoint Depression Visibility Wind Speed Wind Dir Waves Ship Positions

Panda

Last reported at 2015-Mar-02 09:33 UTC. Time now 2015-Mar-04 18:53 UTC.
Position N 55°37' E 014°38'.

Length 89 m; draft 4.3 m.

Type: Cargo ship. MMSI: 245014000.

Date/timePositionNaut miles runAvg speedWind from/ knotsBaromVisibWave heightAir tempDewpointWater temp
2015-Mar-02 09:33N 55°37' E 014°38'1110.6
2015-Mar-02 08:33N 55°27' E 014°39'1010.2
2015-Mar-02 07:33N 55°18' E 014°30'1010.2
2015-Mar-02 06:33N 55°10' E 014°19'1010.5
2015-Mar-02 05:33N 55°02' E 014°07'1010.4
2015-Mar-02 04:34N 54°58' E 013°51'1010.4
2015-Mar-02 03:33N 54°53' E 013°34'1110.7
2015-Mar-02 02:34N 54°49' E 013°17'1010.1
2015-Mar-02 01:33N 54°45' E 013°01'1010.1
2015-Mar-02 00:32N 54°41' E 012°45'1010.2
2015-Mar-01 23:32N 54°35' E 012°29'10 9.9
2015-Mar-01 22:33N 54°30' E 012°16'9 9.1
2015-Mar-01 21:33N 54°25' E 012°03'1110.6
2015-Mar-01 20:33N 54°25' E 011°45'1110.6
2015-Mar-01 19:33N 54°30' E 011°28'10 9.5
2015-Mar-01 18:33N 54°34' E 011°13'29 9.7
2015-Mar-01 15:34N 54°30' E 010°23'1010.3
2015-Mar-01 14:34N 54°23' E 010°11'3 3.3
2015-Mar-01 13:33N 54°22' E 010°06'7 7.3
2015-Mar-01 12:34N 54°21' E 009°54'7 7.1
2015-Mar-01 11:34N 54°18' E 009°43'17 7.0
2015-Mar-01 09:11N 54°08' E 009°20'5 8.3
2015-Mar-01 08:31N 54°03' E 009°18'1 1.1
2015-Mar-01 07:33N 54°02' E 009°18'8 8.0
2015-Mar-01 06:34N 53°55' E 009°11'4 3.9
2015-Mar-01 05:33N 53°53' E 009°05'2 2.4
2015-Mar-01 04:34N 53°52' E 009°01'8 7.8
2015-Mar-01 03:34N 53°50' E 008°49'6 6.3
2015-Mar-01 02:34N 53°55' E 008°41'7 6.6
2015-Mar-01 01:34N 53°58' E 008°31'9 8.8
2015-Mar-01 00:33N 53°59' E 008°16'10 9.7
2015-Feb-28 23:33N 53°58' E 008°00'10 9.7
2015-Feb-28 22:33N 53°56' E 007°44'10 9.8
2015-Feb-28 21:33N 53°53' E 007°28'10 9.8
2015-Feb-28 20:33N 53°51' E 007°12'4210.4
2015-Feb-28 16:33N 53°41' E 006°03'1110.9
2015-Feb-28 15:34N 53°37' E 005°46'1111.2
2015-Feb-28 14:33N 53°34' E 005°28'1111.3
2015-Feb-28 13:33N 53°30' E 005°11'1111.4
2015-Feb-28 12:33N 53°26' E 004°53'3310.7
2015-Feb-28 09:26N 52°59' E 004°21'910.1
2015-Feb-28 08:33N 52°51' E 004°14'1010.1
2015-Feb-28 07:34N 52°42' E 004°05'10 9.6
2015-Feb-28 06:33N 52°35' E 003°54'79 9.7
2015-Feb-27 22:28N 51°37' E 002°27'1011.0
2015-Feb-27 21:33N 51°29' E 002°17'1511.0
2015-Feb-27 20:10N 51°16' E 002°05'711.3
2015-Feb-27 19:33N 51°11' E 001°57'1110.6
2015-Feb-27 18:33N 51°05' E 001°44'229 9.2
2015-Feb-26 17:31N 50°19' W 004°10'3 3.3
2015-Feb-26 16:31N 50°22' W 004°08'0 0.0
2015-Feb-26 15:26N 50°22' W 004°08'0 0.0
2015-Feb-26 14:31N 50°22' W 004°08'0 0.0
2015-Feb-26 13:28N 50°22' W 004°08'0 0.0
2015-Feb-26 12:31N 50°22' W 004°08'0 0.0
2015-Feb-26 11:31N 50°22' W 004°08'0 0.0
2015-Feb-26 10:31N 50°22' W 004°08'0 0.0
2015-Feb-26 09:28N 50°22' W 004°08'0 0.0
2015-Feb-26 08:31N 50°22' W 004°08'0 0.0
2015-Feb-26 07:28N 50°22' W 004°08'0 0.0
2015-Feb-26 06:22N 50°22' W 004°08'0 0.0
2015-Feb-26 05:28N 50°22' W 004°08'0 0.0
2015-Feb-26 04:28N 50°22' W 004°08'0 0.0
2015-Feb-26 03:28N 50°22' W 004°08'0 0.0
2015-Feb-26 02:28N 50°22' W 004°08'0 0.0
2015-Feb-26 01:28N 50°22' W 004°08'0 0.0
2015-Feb-26 00:31N 50°22' W 004°08'0 0.0
2015-Feb-25 23:31N 50°22' W 004°08'0 0.0
2015-Feb-25 22:28N 50°22' W 004°08'0 0.0
2015-Feb-25 21:31N 50°22' W 004°08'0 0.0
2015-Feb-25 20:31N 50°22' W 004°08'0 0.0
2015-Feb-25 19:28N 50°22' W 004°08'0 0.4
2015-Feb-25 18:30N 50°22' W 004°07'0 0.0
2015-Feb-25 17:29N 50°22' W 004°07'0 0.0
2015-Feb-25 16:23N 50°22' W 004°07'0 0.0
2015-Feb-25 15:33N 50°22' W 004°07'0 0.0
2015-Feb-25 14:33N 50°22' W 004°07'0 0.0
2015-Feb-25 13:29N 50°22' W 004°07'0 0.0
2015-Feb-25 12:32N 50°22' W 004°07'0 0.0
2015-Feb-25 11:29N 50°22' W 004°07'0 0.0
2015-Feb-25 10:32N 50°22' W 004°07'0 0.0
2015-Feb-25 09:32N 50°22' W 004°07'0 0.0
2015-Feb-25 08:29N 50°22' W 004°07'0 0.0
2015-Feb-25 07:32N 50°22' W 004°07'0 0.0
2015-Feb-25 06:32N 50°22' W 004°07'0 0.0
2015-Feb-25 05:32N 50°22' W 004°07'0 0.0
2015-Feb-25 04:32N 50°22' W 004°07'0 0.0
2015-Feb-25 03:29N 50°22' W 004°07'0 0.0
2015-Feb-25 02:23N 50°22' W 004°07'0 0.0
2015-Feb-25 01:26N 50°22' W 004°07'0 0.0
2015-Feb-25 00:29N 50°22' W 004°07'0 0.0
2015-Feb-24 23:32N 50°22' W 004°07'0 0.0
2015-Feb-24 22:32N 50°22' W 004°07'0 0.0
2015-Feb-24 21:32N 50°22' W 004°07'25 3.4
2015-Feb-24 14:19N 50°16' W 003°29'7 9.0
2015-Feb-24 13:33N 50°21' W 003°22'8 8.0
2015-Feb-24 12:33N 50°25' W 003°11'81 6.6
2015-Feb-24 00:21N 50°31' W 001°05'3 2.6
2015-Feb-23 23:14N 50°31' W 001°00'16 4.3
2015-Feb-23 19:32N 50°31' W 000°35'33 7.9
2015-Feb-23 15:20N 50°36' E 000°17'6 6.4
2015-Feb-23 14:28N 50°37' E 000°25'7 7.1
2015-Feb-23 13:33N 50°39' E 000°35'8 7.7
2015-Feb-23 12:33N 50°44' E 000°45'28 9.4
2015-Feb-23 09:33N 51°01' E 001°20'1111.4
2015-Feb-23 08:34N 51°08' E 001°34'10 9.7
2015-Feb-23 07:33N 51°15' E 001°45'9 8.7
2015-Feb-23 06:33N 51°22' E 001°53'8 7.6
2015-Feb-23 05:33N 51°28' E 002°00'7 7.0
2015-Feb-23 04:31N 51°33' E 002°09'6 5.7
2015-Feb-23 03:31N 51°38' E 002°15'42 5.9
2015-Feb-22 20:31N 51°38' E 003°22'1111.6
2015-Feb-22 19:34N 51°28' E 003°31'9 9.4
2015-Feb-22 18:33N 51°23' E 003°44'9 9.3
2015-Feb-22 17:33N 51°26' E 003°58'7 7.0
2015-Feb-22 16:33N 51°22' E 004°08'6 5.9
2015-Feb-22 15:33N 51°21' E 004°17'4 4.1
2015-Feb-22 14:34N 51°17' E 004°21'0 0.0
2015-Feb-22 13:30N 51°17' E 004°21'0 0.0
2015-Feb-22 12:30N 51°17' E 004°21'0 0.0
2015-Feb-22 11:33N 51°17' E 004°21'0 0.0
2015-Feb-22 10:33N 51°17' E 004°21'0 0.0
2015-Feb-22 09:33N 51°17' E 004°21'0 0.0
2015-Feb-22 08:33N 51°17' E 004°21'0 0.0
2015-Feb-22 07:33N 51°17' E 004°21'0 0.0
2015-Feb-22 06:33N 51°17' E 004°21'0 0.0
2015-Feb-22 05:33N 51°17' E 004°21'0 0.0
2015-Feb-22 04:33N 51°17' E 004°21'0 0.0
2015-Feb-22 03:33N 51°17' E 004°21'0 0.0
2015-Feb-22 02:33N 51°17' E 004°21'0 0.0
2015-Feb-22 01:33N 51°17' E 004°21'0 0.0
2015-Feb-22 00:33N 51°17' E 004°21'0 0.0
2015-Feb-21 23:33N 51°17' E 004°21'0 0.0
2015-Feb-21 22:33N 51°17' E 004°21'0 0.0
2015-Feb-21 21:33N 51°17' E 004°21'0 0.0
2015-Feb-21 20:33N 51°17' E 004°21'0 0.0
2015-Feb-21 19:30N 51°17' E 004°21'0 0.0
2015-Feb-21 18:33N 51°17' E 004°21'0 0.0
2015-Feb-21 17:30N 51°17' E 004°21'0 0.0
2015-Feb-21 16:33N 51°17' E 004°21'0 0.0
2015-Feb-21 15:32N 51°17' E 004°21'0 0.0
2015-Feb-21 14:32N 51°17' E 004°21'0 0.0
2015-Feb-21 13:32N 51°17' E 004°21'0 0.0
2015-Feb-21 12:32N 51°17' E 004°21'0 0.0
2015-Feb-21 11:32N 51°17' E 004°21'0 0.0
2015-Feb-21 10:32N 51°17' E 004°21'0 0.0
2015-Feb-21 09:32N 51°17' E 004°21'0 0.0
2015-Feb-21 08:33N 51°17' E 004°21'1 0.7
2015-Feb-21 07:34N 51°17' E 004°20'6 6.3
2015-Feb-21 06:33N 51°22' E 004°13'7 7.1
2015-Feb-21 05:34N 51°24' E 004°02'5 5.1
2015-Feb-21 04:33N 51°29' E 004°00'8 7.6
2015-Feb-21 03:33N 51°36' E 004°00'7 6.9
2015-Feb-21 02:33N 51°40' E 004°10'8 8.4
2015-Feb-21 01:33N 51°41' E 004°23'5 4.6
2015-Feb-21 00:32N 51°42' E 004°30'8 8.7
2015-Feb-20 23:33N 51°48' E 004°39'6 5.9
2015-Feb-20 22:33N 51°49' E 004°48'1110.7
2015-Feb-20 21:33N 51°50' E 005°06'8 7.9
2015-Feb-20 20:33N 51°49' E 005°18'7 7.5
2015-Feb-20 19:33N 51°53' E 005°29'1110.6
2015-Feb-20 18:33N 51°53' E 005°46'  
Track history (hours):
 
Tides and Currents Weather Stations Pressure Air Temp Water Temp Dewpoint Dewpoint Depression Visibility Wind Speed Wind Dir Waves Ship Positions

Panda

Last reported at 2015-Mar-02 09:33 UTC. Time now 2015-Mar-04 18:53 UTC.
Position N 55°37' E 014°38'.

Length 89 m; draft 4.3 m.

Type: Cargo ship. MMSI: 245014000.

Date/timePositionNaut miles runAvg speedWind from/ knotsBaromVisibWave heightAir tempDewpointWater temp
2015-Mar-02 09:33N 55°37' E 014°38'1110.6
2015-Mar-02 08:33N 55°27' E 014°39'1010.2
2015-Mar-02 07:33N 55°18' E 014°30'1010.2
2015-Mar-02 06:33N 55°10' E 014°19'1010.5
2015-Mar-02 05:33N 55°02' E 014°07'1010.4
2015-Mar-02 04:34N 54°58' E 013°51'1010.4
2015-Mar-02 03:33N 54°53' E 013°34'1110.7
2015-Mar-02 02:34N 54°49' E 013°17'1010.1
2015-Mar-02 01:33N 54°45' E 013°01'1010.1
2015-Mar-02 00:32N 54°41' E 012°45'1010.2
2015-Mar-01 23:32N 54°35' E 012°29'10 9.9
2015-Mar-01 22:33N 54°30' E 012°16'9 9.1
2015-Mar-01 21:33N 54°25' E 012°03'1110.6
2015-Mar-01 20:33N 54°25' E 011°45'1110.6
2015-Mar-01 19:33N 54°30' E 011°28'10 9.5
2015-Mar-01 18:33N 54°34' E 011°13'29 9.7
2015-Mar-01 15:34N 54°30' E 010°23'1010.3
2015-Mar-01 14:34N 54°23' E 010°11'3 3.3
2015-Mar-01 13:33N 54°22' E 010°06'7 7.3
2015-Mar-01 12:34N 54°21' E 009°54'7 7.1
2015-Mar-01 11:34N 54°18' E 009°43'17 7.0
2015-Mar-01 09:11N 54°08' E 009°20'5 8.3
2015-Mar-01 08:31N 54°03' E 009°18'1 1.1
2015-Mar-01 07:33N 54°02' E 009°18'8 8.0
2015-Mar-01 06:34N 53°55' E 009°11'4 3.9
2015-Mar-01 05:33N 53°53' E 009°05'2 2.4
2015-Mar-01 04:34N 53°52' E 009°01'8 7.8
2015-Mar-01 03:34N 53°50' E 008°49'6 6.3
2015-Mar-01 02:34N 53°55' E 008°41'7 6.6
2015-Mar-01 01:34N 53°58' E 008°31'9 8.8
2015-Mar-01 00:33N 53°59' E 008°16'10 9.7
2015-Feb-28 23:33N 53°58' E 008°00'10 9.7
2015-Feb-28 22:33N 53°56' E 007°44'10 9.8
2015-Feb-28 21:33N 53°53' E 007°28'10 9.8
2015-Feb-28 20:33N 53°51' E 007°12'4210.4
2015-Feb-28 16:33N 53°41' E 006°03'1110.9
2015-Feb-28 15:34N 53°37' E 005°46'1111.2
2015-Feb-28 14:33N 53°34' E 005°28'1111.3
2015-Feb-28 13:33N 53°30' E 005°11'1111.4
2015-Feb-28 12:33N 53°26' E 004°53'3310.7
2015-Feb-28 09:26N 52°59' E 004°21'910.1
2015-Feb-28 08:33N 52°51' E 004°14'1010.1
2015-Feb-28 07:34N 52°42' E 004°05'10 9.6
2015-Feb-28 06:33N 52°35' E 003°54'79 9.7
2015-Feb-27 22:28N 51°37' E 002°27'1011.0
2015-Feb-27 21:33N 51°29' E 002°17'1511.0
2015-Feb-27 20:10N 51°16' E 002°05'711.3
2015-Feb-27 19:33N 51°11' E 001°57'1110.6
2015-Feb-27 18:33N 51°05' E 001°44'229 9.2
2015-Feb-26 17:31N 50°19' W 004°10'3 3.3
2015-Feb-26 16:31N 50°22' W 004°08'0 0.0
2015-Feb-26 15:26N 50°22' W 004°08'0 0.0
2015-Feb-26 14:31N 50°22' W 004°08'0 0.0
2015-Feb-26 13:28N 50°22' W 004°08'0 0.0
2015-Feb-26 12:31N 50°22' W 004°08'0 0.0
2015-Feb-26 11:31N 50°22' W 004°08'0 0.0
2015-Feb-26 10:31N 50°22' W 004°08'0 0.0
2015-Feb-26 09:28N 50°22' W 004°08'0 0.0
2015-Feb-26 08:31N 50°22' W 004°08'0 0.0
2015-Feb-26 07:28N 50°22' W 004°08'0 0.0
2015-Feb-26 06:22N 50°22' W 004°08'0 0.0
2015-Feb-26 05:28N 50°22' W 004°08'0 0.0
2015-Feb-26 04:28N 50°22' W 004°08'0 0.0
2015-Feb-26 03:28N 50°22' W 004°08'0 0.0
2015-Feb-26 02:28N 50°22' W 004°08'0 0.0
2015-Feb-26 01:28N 50°22' W 004°08'0 0.0
2015-Feb-26 00:31N 50°22' W 004°08'0 0.0
2015-Feb-25 23:31N 50°22' W 004°08'0 0.0
2015-Feb-25 22:28N 50°22' W 004°08'0 0.0
2015-Feb-25 21:31N 50°22' W 004°08'0 0.0
2015-Feb-25 20:31N 50°22' W 004°08'0 0.0
2015-Feb-25 19:28N 50°22' W 004°08'0 0.4
2015-Feb-25 18:30N 50°22' W 004°07'0 0.0
2015-Feb-25 17:29N 50°22' W 004°07'0 0.0
2015-Feb-25 16:23N 50°22' W 004°07'0 0.0
2015-Feb-25 15:33N 50°22' W 004°07'0 0.0
2015-Feb-25 14:33N 50°22' W 004°07'0 0.0
2015-Feb-25 13:29N 50°22' W 004°07'0 0.0
2015-Feb-25 12:32N 50°22' W 004°07'0 0.0
2015-Feb-25 11:29N 50°22' W 004°07'0 0.0
2015-Feb-25 10:32N 50°22' W 004°07'0 0.0
2015-Feb-25 09:32N 50°22' W 004°07'0 0.0
2015-Feb-25 08:29N 50°22' W 004°07'0 0.0
2015-Feb-25 07:32N 50°22' W 004°07'0 0.0
2015-Feb-25 06:32N 50°22' W 004°07'0 0.0
2015-Feb-25 05:32N 50°22' W 004°07'0 0.0
2015-Feb-25 04:32N 50°22' W 004°07'0 0.0
2015-Feb-25 03:29N 50°22' W 004°07'0 0.0
2015-Feb-25 02:23N 50°22' W 004°07'0 0.0
2015-Feb-25 01:26N 50°22' W 004°07'0 0.0
2015-Feb-25 00:29N 50°22' W 004°07'0 0.0
2015-Feb-24 23:32N 50°22' W 004°07'0 0.0
2015-Feb-24 22:32N 50°22' W 004°07'0 0.0
2015-Feb-24 21:32N 50°22' W 004°07'25 3.4
2015-Feb-24 14:19N 50°16' W 003°29'7 9.0
2015-Feb-24 13:33N 50°21' W 003°22'8 8.0
2015-Feb-24 12:33N 50°25' W 003°11'81 6.6
2015-Feb-24 00:21N 50°31' W 001°05'3 2.6
2015-Feb-23 23:14N 50°31' W 001°00'16 4.3
2015-Feb-23 19:32N 50°31' W 000°35'33 7.9
2015-Feb-23 15:20N 50°36' E 000°17'6 6.4
2015-Feb-23 14:28N 50°37' E 000°25'7 7.1
2015-Feb-23 13:33N 50°39' E 000°35'8 7.7
2015-Feb-23 12:33N 50°44' E 000°45'28 9.4
2015-Feb-23 09:33N 51°01' E 001°20'1111.4
2015-Feb-23 08:34N 51°08' E 001°34'10 9.7
2015-Feb-23 07:33N 51°15' E 001°45'9 8.7
2015-Feb-23 06:33N 51°22' E 001°53'8 7.6
2015-Feb-23 05:33N 51°28' E 002°00'7 7.0
2015-Feb-23 04:31N 51°33' E 002°09'6 5.7
2015-Feb-23 03:31N 51°38' E 002°15'42 5.9
2015-Feb-22 20:31N 51°38' E 003°22'1111.6
2015-Feb-22 19:34N 51°28' E 003°31'9 9.4
2015-Feb-22 18:33N 51°23' E 003°44'9 9.3
2015-Feb-22 17:33N 51°26' E 003°58'7 7.0
2015-Feb-22 16:33N 51°22' E 004°08'6 5.9
2015-Feb-22 15:33N 51°21' E 004°17'4 4.1
2015-Feb-22 14:34N 51°17' E 004°21'0 0.0
2015-Feb-22 13:30N 51°17' E 004°21'0 0.0
2015-Feb-22 12:30N 51°17' E 004°21'0 0.0
2015-Feb-22 11:33N 51°17' E 004°21'0 0.0
2015-Feb-22 10:33N 51°17' E 004°21'0 0.0
2015-Feb-22 09:33N 51°17' E 004°21'0 0.0
2015-Feb-22 08:33N 51°17' E 004°21'0 0.0
2015-Feb-22 07:33N 51°17' E 004°21'0 0.0
2015-Feb-22 06:33N 51°17' E 004°21'0 0.0
2015-Feb-22 05:33N 51°17' E 004°21'0 0.0
2015-Feb-22 04:33N 51°17' E 004°21'0 0.0
2015-Feb-22 03:33N 51°17' E 004°21'0 0.0
2015-Feb-22 02:33N 51°17' E 004°21'0 0.0
2015-Feb-22 01:33N 51°17' E 004°21'0 0.0
2015-Feb-22 00:33N 51°17' E 004°21'0 0.0
2015-Feb-21 23:33N 51°17' E 004°21'0 0.0
2015-Feb-21 22:33N 51°17' E 004°21'0 0.0
2015-Feb-21 21:33N 51°17' E 004°21'0 0.0
2015-Feb-21 20:33N 51°17' E 004°21'0 0.0
2015-Feb-21 19:30N 51°17' E 004°21'0 0.0
2015-Feb-21 18:33N 51°17' E 004°21'0 0.0
2015-Feb-21 17:30N 51°17' E 004°21'0 0.0
2015-Feb-21 16:33N 51°17' E 004°21'0 0.0
2015-Feb-21 15:32N 51°17' E 004°21'0 0.0
2015-Feb-21 14:32N 51°17' E 004°21'0 0.0
2015-Feb-21 13:32N 51°17' E 004°21'0 0.0
2015-Feb-21 12:32N 51°17' E 004°21'0 0.0
2015-Feb-21 11:32N 51°17' E 004°21'0 0.0
2015-Feb-21 10:32N 51°17' E 004°21'0 0.0
2015-Feb-21 09:32N 51°17' E 004°21'0 0.0
2015-Feb-21 08:33N 51°17' E 004°21'1 0.7
2015-Feb-21 07:34N 51°17' E 004°20'6 6.3
2015-Feb-21 06:33N 51°22' E 004°13'7 7.1
2015-Feb-21 05:34N 51°24' E 004°02'5 5.1
2015-Feb-21 04:33N 51°29' E 004°00'8 7.6
2015-Feb-21 03:33N 51°36' E 004°00'7 6.9
2015-Feb-21 02:33N 51°40' E 004°10'8 8.4
2015-Feb-21 01:33N 51°41' E 004°23'5 4.6
2015-Feb-21 00:32N 51°42' E 004°30'8 8.7
2015-Feb-20 23:33N 51°48' E 004°39'6 5.9
2015-Feb-20 22:33N 51°49' E 004°48'1110.7
2015-Feb-20 21:33N 51°50' E 005°06'8 7.9
2015-Feb-20 20:33N 51°49' E 005°18'7 7.5
2015-Feb-20 19:33N 51°53' E 005°29'1110.6
2015-Feb-20 18:33N 51°53' E 005°46'  

Dump ship's entire track history